createdAt,value
2023-05-04T00:00:20.199Z,0.00
2023-05-04T00:01:20.203Z,0.00
2023-05-04T00:02:20.234Z,0.00
2023-05-04T00:03:20.220Z,0.00
2023-05-04T00:04:20.152Z,0.00
2023-05-04T00:05:20.137Z,0.00
2023-05-04T00:06:20.160Z,0.00
2023-05-04T00:07:20.136Z,0.00
2023-05-04T00:08:20.110Z,0.00
2023-05-04T00:09:20.099Z,0.00
2023-05-04T00:10:20.086Z,0.00
2023-05-04T00:11:20.070Z,0.00
2023-05-04T00:12:20.069Z,0.00
2023-05-04T00:13:20.083Z,0.00
2023-05-04T00:14:20.048Z,0.00
2023-05-04T00:15:20.025Z,0.00
2023-05-04T00:16:20.096Z,0.00
2023-05-04T00:17:20.016Z,0.00
2023-05-04T00:18:20.005Z,0.00
2023-05-04T00:19:20.019Z,0.00
2023-05-04T00:20:19.970Z,0.00
2023-05-04T00:21:19.960Z,0.00
2023-05-04T00:22:20.091Z,0.00
2023-05-04T00:23:19.942Z,0.00
2023-05-04T00:24:19.929Z,0.00
2023-05-04T00:25:19.955Z,0.00
2023-05-04T00:26:19.905Z,0.00
2023-05-04T00:27:19.895Z,0.00
2023-05-04T00:28:19.886Z,0.00
2023-05-04T00:29:19.879Z,0.00
2023-05-04T00:30:19.890Z,0.00
2023-05-04T00:31:19.896Z,0.00
2023-05-04T00:32:19.843Z,0.00
2023-05-04T00:33:19.832Z,0.00
2023-05-04T00:34:19.818Z,0.00
2023-05-04T00:35:19.813Z,0.00
2023-05-04T00:36:19.812Z,0.00
2023-05-04T00:37:19.824Z,0.00
2023-05-04T00:38:19.800Z,0.00
2023-05-04T00:39:19.779Z,0.00
2023-05-04T00:40:19.761Z,0.00
2023-05-04T00:41:19.769Z,0.00
2023-05-04T00:42:19.735Z,0.00
2023-05-04T00:43:19.758Z,0.00
2023-05-04T00:44:19.711Z,0.00
2023-05-04T00:45:19.703Z,0.00
2023-05-04T00:46:19.700Z,0.00
2023-05-04T00:47:19.997Z,0.00
2023-05-04T00:48:19.677Z,0.00
2023-05-04T00:49:19.679Z,0.00
2023-05-04T00:50:19.649Z,0.00
2023-05-04T00:51:19.639Z,0.00
2023-05-04T00:52:19.630Z,0.00
2023-05-04T00:53:19.647Z,0.00
2023-05-04T00:54:19.628Z,0.00
2023-05-04T00:55:19.619Z,0.00
2023-05-04T00:56:19.586Z,0.00
2023-05-04T00:57:19.599Z,0.00
2023-05-04T00:58:19.578Z,0.00
2023-05-04T00:59:19.561Z,0.00
2023-05-04T01:00:19.538Z,0.00
2023-05-04T01:01:19.637Z,0.00
2023-05-04T01:02:19.522Z,0.00
2023-05-04T01:03:19.694Z,0.00
2023-05-04T01:04:19.507Z,0.00
2023-05-04T01:05:19.519Z,0.00
2023-05-04T01:06:19.477Z,0.00
2023-05-04T01:07:19.501Z,0.00
2023-05-04T01:08:19.489Z,0.00
2023-05-04T01:09:19.497Z,0.00
2023-05-04T01:10:19.523Z,0.00
2023-05-04T01:11:19.531Z,0.00
2023-05-04T01:12:19.419Z,0.00
2023-05-04T01:13:19.559Z,0.00
2023-05-04T01:14:19.416Z,0.00
2023-05-04T01:15:19.384Z,0.00
2023-05-04T01:16:19.385Z,0.00
2023-05-04T01:17:19.372Z,0.00
2023-05-04T01:18:19.350Z,0.00
2023-05-04T01:19:19.389Z,0.00
2023-05-04T01:20:19.344Z,0.00
2023-05-04T01:21:19.318Z,0.00
2023-05-04T01:22:19.313Z,0.00
2023-05-04T01:23:19.298Z,0.00
2023-05-04T01:24:19.289Z,0.00
2023-05-04T01:25:19.294Z,0.00
2023-05-04T01:26:19.285Z,0.00
2023-05-04T01:27:19.262Z,0.00
2023-05-04T01:28:19.264Z,0.00
2023-05-04T01:29:19.243Z,0.00
2023-05-04T01:30:19.227Z,0.00
2023-05-04T01:31:19.266Z,0.00
2023-05-04T01:32:19.209Z,0.00
2023-05-04T01:33:19.205Z,0.00
2023-05-04T01:34:19.180Z,0.00
2023-05-04T01:35:19.174Z,0.00
2023-05-04T01:36:19.157Z,0.00
2023-05-04T01:37:19.156Z,0.00
2023-05-04T01:38:19.155Z,0.00
2023-05-04T01:39:19.124Z,0.00
2023-05-04T01:40:19.150Z,0.00
2023-05-04T01:41:19.098Z,0.00
2023-05-04T01:42:19.116Z,0.00
2023-05-04T01:43:19.086Z,0.00
2023-05-04T01:44:19.067Z,0.00
2023-05-04T01:45:19.070Z,0.00
2023-05-04T01:46:19.087Z,0.00
2023-05-04T01:47:19.039Z,0.00
2023-05-04T01:48:19.037Z,0.00
2023-05-04T01:49:19.029Z,0.00
2023-05-04T01:50:18.999Z,0.00
2023-05-04T01:51:19.003Z,0.00
2023-05-04T01:52:19.009Z,0.00
2023-05-04T01:53:18.963Z,0.00
2023-05-04T01:54:18.968Z,0.00
2023-05-04T01:55:18.964Z,0.00
2023-05-04T01:56:18.937Z,0.00
2023-05-04T01:57:18.929Z,0.00
2023-05-04T01:58:18.936Z,0.00
2023-05-04T01:59:18.909Z,0.00
2023-05-04T02:00:18.914Z,0.00
2023-05-04T02:01:18.925Z,0.00
2023-05-04T02:02:18.896Z,0.00
2023-05-04T02:03:18.932Z,0.00
2023-05-04T02:04:18.855Z,0.00
2023-05-04T02:05:18.859Z,0.00
2023-05-04T02:06:18.829Z,0.00
2023-05-04T02:07:18.833Z,0.00
2023-05-04T02:08:18.806Z,0.00
2023-05-04T02:09:18.792Z,0.00
2023-05-04T02:10:18.799Z,0.00
2023-05-04T02:11:18.780Z,0.00
2023-05-04T02:12:18.790Z,0.00
2023-05-04T02:13:18.808Z,0.00
2023-05-04T02:14:18.924Z,0.00
2023-05-04T02:15:18.733Z,0.00
2023-05-04T02:16:18.768Z,0.00
2023-05-04T02:17:18.718Z,0.00
2023-05-04T02:18:18.699Z,0.00
2023-05-04T02:19:18.703Z,0.00
2023-05-04T02:20:18.694Z,0.00
2023-05-04T02:21:18.664Z,0.00
2023-05-04T02:22:18.656Z,0.00
2023-05-04T02:23:18.668Z,0.00
2023-05-04T02:24:18.637Z,0.00
2023-05-04T02:25:18.651Z,0.00
2023-05-04T02:26:18.614Z,0.00
2023-05-04T02:27:18.597Z,0.00
2023-05-04T02:28:18.590Z,0.00
2023-05-04T02:29:18.589Z,0.00
2023-05-04T02:30:18.593Z,0.00
2023-05-04T02:31:18.592Z,0.00
2023-05-04T02:32:18.566Z,0.00
2023-05-04T02:33:18.537Z,0.00
2023-05-04T02:34:18.545Z,0.00
2023-05-04T02:35:18.523Z,0.00
2023-05-04T02:36:18.507Z,0.00
2023-05-04T02:37:18.516Z,0.00
2023-05-04T02:38:18.499Z,0.00
2023-05-04T02:39:18.472Z,0.00
2023-05-04T02:40:18.461Z,0.00
2023-05-04T02:41:18.462Z,0.00
2023-05-04T02:42:18.434Z,0.00
2023-05-04T02:43:18.447Z,0.00
2023-05-04T02:44:18.452Z,0.00
2023-05-04T02:45:18.400Z,0.00
2023-05-04T02:46:18.505Z,0.00
2023-05-04T02:47:18.382Z,0.00
2023-05-04T02:48:18.375Z,0.00
2023-05-04T02:49:18.400Z,0.00
2023-05-04T02:50:18.358Z,0.00
2023-05-04T02:51:18.341Z,0.00
2023-05-04T02:52:18.330Z,0.00
2023-05-04T02:53:18.351Z,0.00
2023-05-04T02:54:18.312Z,0.00
2023-05-04T02:55:18.310Z,0.00
2023-05-04T02:56:18.299Z,0.00
2023-05-04T02:57:18.279Z,0.00
2023-05-04T02:58:18.281Z,0.00
2023-05-04T02:59:18.265Z,0.00
2023-05-04T03:00:18.244Z,0.00
2023-05-04T03:01:18.309Z,0.00
2023-05-04T03:02:18.242Z,0.00
2023-05-04T03:03:18.227Z,0.00
2023-05-04T03:04:18.233Z,0.00
2023-05-04T03:05:18.188Z,0.00
2023-05-04T03:06:18.187Z,0.00
2023-05-04T03:07:18.278Z,0.00
2023-05-04T03:08:18.164Z,0.00
2023-05-04T03:09:18.163Z,0.00
2023-05-04T03:10:18.146Z,0.00
2023-05-04T03:11:18.122Z,0.00
2023-05-04T03:12:18.125Z,0.00
2023-05-04T03:13:18.224Z,0.00
2023-05-04T03:14:18.093Z,0.00
2023-05-04T03:15:18.080Z,0.00
2023-05-04T03:16:18.100Z,0.00
2023-05-04T03:17:18.066Z,0.00
2023-05-04T03:18:18.083Z,0.00
2023-05-04T03:19:18.055Z,0.00
2023-05-04T03:20:18.039Z,0.00
2023-05-04T03:21:18.031Z,0.00
2023-05-04T03:22:18.007Z,0.00
2023-05-04T03:23:17.998Z,0.00
2023-05-04T03:24:17.988Z,0.00
2023-05-04T03:25:17.991Z,0.00
2023-05-04T03:26:17.973Z,0.00
2023-05-04T03:27:17.954Z,0.00
2023-05-04T03:28:17.942Z,0.00
2023-05-04T03:29:17.929Z,0.00
2023-05-04T03:30:17.934Z,0.00
2023-05-04T03:31:17.980Z,0.00
2023-05-04T03:32:17.893Z,0.00
2023-05-04T03:33:17.887Z,0.00
2023-05-04T03:34:17.924Z,0.00
2023-05-04T03:35:24.395Z,0.00
2023-05-04T03:36:18.853Z,0.00
2023-05-04T03:37:17.865Z,0.00
2023-05-04T03:38:17.833Z,0.00
2023-05-04T03:39:17.833Z,0.00
2023-05-04T03:40:17.824Z,0.00
2023-05-04T03:41:17.806Z,0.00
2023-05-04T03:42:17.798Z,0.00
2023-05-04T03:43:17.801Z,0.00
2023-05-04T03:44:17.767Z,0.00
2023-05-04T03:45:17.754Z,0.00
2023-05-04T03:46:17.786Z,0.00
2023-05-04T03:47:17.732Z,0.00
2023-05-04T03:48:17.722Z,0.00
2023-05-04T03:49:17.751Z,0.00
2023-05-04T03:50:17.743Z,0.00
2023-05-04T03:51:17.692Z,0.00
2023-05-04T03:52:17.696Z,0.00
2023-05-04T03:53:17.671Z,0.00
2023-05-04T03:54:17.665Z,0.00
2023-05-04T03:55:17.693Z,5.62
2023-05-04T03:56:17.641Z,5.62
2023-05-04T03:57:17.623Z,5.62
2023-05-04T03:58:17.615Z,5.62
2023-05-04T03:59:17.600Z,5.62
2023-05-04T04:00:17.596Z,5.62
2023-05-04T04:01:17.626Z,5.62
2023-05-04T04:02:17.650Z,11.25
2023-05-04T04:03:17.771Z,11.25
2023-05-04T04:04:17.621Z,11.25
2023-05-04T04:05:17.560Z,11.25
2023-05-04T04:06:17.642Z,11.25
2023-05-04T04:07:17.535Z,16.88
2023-05-04T04:08:17.509Z,16.88
2023-05-04T04:09:17.512Z,16.88
2023-05-04T04:10:17.487Z,16.88
2023-05-04T04:11:17.470Z,22.50
2023-05-04T04:12:17.464Z,22.50
2023-05-04T04:13:17.522Z,22.50
2023-05-04T04:14:17.452Z,22.50
2023-05-04T04:15:17.428Z,28.12
2023-05-04T04:16:17.477Z,28.12
2023-05-04T04:17:17.420Z,28.12
2023-05-04T04:18:17.401Z,28.12
2023-05-04T04:19:17.420Z,33.75
2023-05-04T04:20:17.398Z,33.75
2023-05-04T04:21:17.364Z,33.75
2023-05-04T04:22:17.382Z,39.38
2023-05-04T04:23:17.349Z,39.38
2023-05-04T04:24:17.371Z,39.38
2023-05-04T04:25:17.325Z,39.38
2023-05-04T04:26:17.314Z,45.00
2023-05-04T04:27:17.298Z,45.00
2023-05-04T04:28:17.295Z,45.00
2023-05-04T04:29:17.304Z,50.62
2023-05-04T04:30:17.313Z,50.62
2023-05-04T04:31:17.366Z,50.62
2023-05-04T04:32:17.251Z,50.62
2023-05-04T04:33:17.234Z,56.25
2023-05-04T04:34:17.225Z,56.25
2023-05-04T04:35:17.232Z,56.25
2023-05-04T04:36:17.247Z,61.88
2023-05-04T04:37:17.188Z,61.88
2023-05-04T04:38:17.218Z,61.88
2023-05-04T04:39:17.278Z,61.88
2023-05-04T04:40:17.168Z,67.50
2023-05-04T04:41:17.150Z,67.50
2023-05-04T04:42:17.182Z,67.50
2023-05-04T04:43:17.127Z,73.12
2023-05-04T04:44:17.122Z,73.12
2023-05-04T04:45:17.119Z,73.12
2023-05-04T04:46:17.165Z,73.12
2023-05-04T04:47:17.095Z,78.75
2023-05-04T04:48:17.117Z,78.75
2023-05-04T04:49:17.062Z,78.75
2023-05-04T04:50:17.053Z,78.75
2023-05-04T04:51:17.040Z,84.38
2023-05-04T04:52:17.034Z,84.38
2023-05-04T04:53:17.052Z,84.38
2023-05-04T04:54:17.129Z,90.00
2023-05-04T04:55:17.006Z,90.00
2023-05-04T04:56:16.990Z,90.00
2023-05-04T04:57:16.976Z,90.00
2023-05-04T04:58:16.994Z,95.62
2023-05-04T04:59:16.954Z,95.62
2023-05-04T05:00:16.968Z,106.88
2023-05-04T05:01:16.988Z,157.50
2023-05-04T05:02:16.924Z,264.38
2023-05-04T05:03:17.013Z,388.12
2023-05-04T05:04:16.962Z,410.62
2023-05-04T05:05:16.907Z,433.12
2023-05-04T05:06:16.899Z,427.50
2023-05-04T05:07:16.869Z,416.25
2023-05-04T05:08:16.861Z,399.38
2023-05-04T05:09:16.859Z,371.25
2023-05-04T05:10:16.869Z,365.62
2023-05-04T05:11:16.825Z,365.62
2023-05-04T05:12:16.876Z,360.00
2023-05-04T05:13:16.951Z,365.62
2023-05-04T05:14:16.804Z,376.88
2023-05-04T05:15:16.830Z,388.12
2023-05-04T05:16:16.811Z,393.75
2023-05-04T05:17:16.764Z,399.38
2023-05-04T05:18:16.784Z,421.88
2023-05-04T05:19:16.743Z,444.38
2023-05-04T05:20:16.745Z,438.75
2023-05-04T05:21:16.721Z,444.38
2023-05-04T05:22:16.722Z,461.25
2023-05-04T05:23:16.695Z,466.88
2023-05-04T05:24:16.711Z,472.50
2023-05-04T05:25:16.676Z,483.75
2023-05-04T05:26:16.712Z,511.88
2023-05-04T05:27:16.673Z,517.50
2023-05-04T05:28:16.657Z,511.88
2023-05-04T05:29:16.640Z,523.12
2023-05-04T05:30:16.677Z,534.38
2023-05-04T05:31:16.669Z,551.25
2023-05-04T05:32:16.609Z,590.62
2023-05-04T05:33:16.657Z,613.12
2023-05-04T05:34:16.588Z,601.88
2023-05-04T05:35:16.594Z,601.88
2023-05-04T05:36:16.563Z,624.38
2023-05-04T05:37:16.546Z,641.25
2023-05-04T05:38:16.558Z,652.50
2023-05-04T05:39:16.532Z,669.38
2023-05-04T05:40:16.517Z,686.25
2023-05-04T05:41:16.537Z,686.25
2023-05-04T05:42:16.541Z,680.62
2023-05-04T05:43:16.489Z,697.50
2023-05-04T05:44:16.502Z,708.75
2023-05-04T05:45:16.462Z,731.25
2023-05-04T05:46:16.471Z,753.75
2023-05-04T05:47:16.463Z,748.12
2023-05-04T05:48:16.450Z,742.50
2023-05-04T05:49:16.429Z,748.12
2023-05-04T05:50:16.426Z,753.75
2023-05-04T05:51:16.416Z,765.00
2023-05-04T05:52:16.403Z,765.00
2023-05-04T05:53:16.388Z,765.00
2023-05-04T05:54:16.375Z,793.12
2023-05-04T05:55:16.356Z,776.25
2023-05-04T05:56:16.344Z,793.12
2023-05-04T05:57:16.326Z,849.38
2023-05-04T05:58:16.468Z,877.50
2023-05-04T05:59:16.318Z,866.25
2023-05-04T06:00:16.304Z,877.50
2023-05-04T06:01:16.283Z,883.12
2023-05-04T06:02:16.309Z,900.00
2023-05-04T06:03:16.393Z,888.75
2023-05-04T06:04:16.363Z,916.88
2023-05-04T06:05:16.262Z,984.38
2023-05-04T06:06:16.229Z,945.00
2023-05-04T06:07:16.231Z,900.00
2023-05-04T06:08:16.207Z,956.25
2023-05-04T06:09:16.192Z,995.62
2023-05-04T06:10:16.184Z,990.00
2023-05-04T06:11:16.185Z,1035.00
2023-05-04T06:12:16.172Z,1029.38
2023-05-04T06:13:16.266Z,1035.00
2023-05-04T06:14:16.160Z,1051.88
2023-05-04T06:15:16.133Z,1091.25
2023-05-04T06:16:16.167Z,1102.50
2023-05-04T06:17:16.114Z,1108.12
2023-05-04T06:18:16.095Z,1136.25
2023-05-04T06:19:16.084Z,1108.12
2023-05-04T06:20:16.096Z,1130.62
2023-05-04T06:21:16.061Z,1164.38
2023-05-04T06:22:16.051Z,1153.12
2023-05-04T06:23:16.059Z,1119.38
2023-05-04T06:24:16.048Z,1164.38
2023-05-04T06:25:16.029Z,1276.88
2023-05-04T06:26:16.009Z,1276.88
2023-05-04T06:27:16.000Z,1237.50
2023-05-04T06:28:15.986Z,1265.62
2023-05-04T06:29:15.988Z,1338.75
2023-05-04T06:30:15.986Z,1203.75
2023-05-04T06:31:16.016Z,1265.62
2023-05-04T06:32:16.000Z,1321.88
2023-05-04T06:33:15.929Z,1282.50
2023-05-04T06:34:15.926Z,1372.50
2023-05-04T06:35:15.919Z,1327.50
2023-05-04T06:36:15.897Z,1327.50
2023-05-04T06:37:16.258Z,1366.88
2023-05-04T06:38:15.883Z,1305.00
2023-05-04T06:39:15.855Z,1434.38
2023-05-04T06:40:15.859Z,1383.75
2023-05-04T06:41:15.861Z,1310.62
2023-05-04T06:42:15.835Z,1496.25
2023-05-04T06:43:15.816Z,1428.75
2023-05-04T06:44:15.805Z,1383.75
2023-05-04T06:45:15.795Z,1490.62
2023-05-04T06:46:16.270Z,1355.62
2023-05-04T06:47:15.809Z,1366.88
2023-05-04T06:48:15.761Z,1479.38
2023-05-04T06:49:15.752Z,1485.00
2023-05-04T06:50:15.740Z,1473.75
2023-05-04T06:51:15.736Z,1518.75
2023-05-04T06:52:15.720Z,1428.75
2023-05-04T06:53:15.725Z,1496.25
2023-05-04T06:54:15.695Z,1586.25
2023-05-04T06:55:15.696Z,1631.25
2023-05-04T06:56:15.673Z,1625.62
2023-05-04T06:57:15.658Z,1665.00
2023-05-04T06:58:15.664Z,1591.88
2023-05-04T06:59:15.649Z,1648.12
2023-05-04T07:00:15.648Z,1721.25
2023-05-04T07:01:16.941Z,1631.25
2023-05-04T07:02:15.630Z,1591.88
2023-05-04T07:03:15.637Z,1535.62
2023-05-04T07:04:15.588Z,1546.88
2023-05-04T07:05:15.610Z,1586.25
2023-05-04T07:06:15.567Z,1591.88
2023-05-04T07:07:15.557Z,1665.00
2023-05-04T07:08:15.557Z,1636.88
2023-05-04T07:09:15.533Z,1597.50
2023-05-04T07:10:15.556Z,1738.12
2023-05-04T07:11:15.527Z,1659.38
2023-05-04T07:12:15.500Z,1591.88
2023-05-04T07:13:15.517Z,1614.38
2023-05-04T07:14:15.483Z,1681.88
2023-05-04T07:15:15.470Z,1822.50
2023-05-04T07:16:15.514Z,1659.38
2023-05-04T07:17:15.464Z,1687.50
2023-05-04T07:18:15.528Z,1867.50
2023-05-04T07:19:15.429Z,1867.50
2023-05-04T07:20:15.448Z,1749.38
2023-05-04T07:21:27.485Z,1777.50
2023-05-04T07:22:16.400Z,1715.62
2023-05-04T07:23:15.389Z,1867.50
2023-05-04T07:24:15.374Z,2064.38
2023-05-04T07:25:15.363Z,1850.62
2023-05-04T07:26:15.354Z,1760.62
2023-05-04T07:27:15.333Z,1890.00
2023-05-04T07:28:15.329Z,1963.12
2023-05-04T07:29:15.341Z,1884.38
2023-05-04T07:30:15.306Z,1738.12
2023-05-04T07:31:15.299Z,1715.62
2023-05-04T07:32:15.327Z,1743.75
2023-05-04T07:33:15.300Z,1665.00
2023-05-04T07:34:15.325Z,1681.88
2023-05-04T07:35:15.282Z,1777.50
2023-05-04T07:36:15.255Z,1828.12
2023-05-04T07:37:15.250Z,1794.38
2023-05-04T07:38:15.212Z,1726.88
2023-05-04T07:39:15.202Z,1906.88
2023-05-04T07:40:15.209Z,1951.88
2023-05-04T07:41:15.205Z,1968.75
2023-05-04T07:42:15.171Z,1867.50
2023-05-04T07:43:15.160Z,1738.12
2023-05-04T07:44:15.165Z,1726.88
2023-05-04T07:45:15.139Z,1951.88
2023-05-04T07:46:15.184Z,1974.38
2023-05-04T07:47:15.146Z,1935.00
2023-05-04T07:48:16.270Z,2002.50
2023-05-04T07:49:15.108Z,2115.00
2023-05-04T07:50:15.122Z,2272.50
2023-05-04T07:51:15.116Z,2013.75
2023-05-04T07:52:15.072Z,1794.38
2023-05-04T07:53:15.081Z,1957.50
2023-05-04T07:54:15.051Z,2092.50
2023-05-04T07:55:15.025Z,2171.25
2023-05-04T07:56:15.022Z,1980.00
2023-05-04T07:57:15.004Z,1794.38
2023-05-04T07:58:15.002Z,1873.12
2023-05-04T07:59:15.021Z,2030.62
2023-05-04T08:00:14.975Z,2081.25
2023-05-04T08:01:14.960Z,2160.00
2023-05-04T08:02:15.052Z,2216.25
2023-05-04T08:03:14.951Z,2188.12
2023-05-04T08:04:14.929Z,2328.75
2023-05-04T08:05:15.086Z,2160.00
2023-05-04T08:06:14.931Z,2092.50
2023-05-04T08:07:14.901Z,2109.38
2023-05-04T08:08:14.894Z,2137.50
2023-05-04T08:09:14.873Z,2278.12
2023-05-04T08:10:14.881Z,2261.25
2023-05-04T08:11:20.652Z,2171.25
2023-05-04T08:12:15.842Z,2165.62
2023-05-04T08:13:14.896Z,2103.75
2023-05-04T08:14:14.820Z,2182.50
2023-05-04T08:15:14.816Z,2126.25
2023-05-04T08:16:14.821Z,2070.00
2023-05-04T08:17:14.795Z,2188.12
2023-05-04T08:18:14.776Z,2193.75
2023-05-04T08:19:14.764Z,2154.38
2023-05-04T08:20:14.775Z,2176.88
2023-05-04T08:21:15.002Z,2182.50
2023-05-04T08:22:14.837Z,2227.50
2023-05-04T08:23:14.741Z,2188.12
2023-05-04T08:24:14.713Z,2210.62
2023-05-04T08:25:14.701Z,2295.00
2023-05-04T08:26:14.695Z,2300.62
2023-05-04T08:27:14.675Z,2278.12
2023-05-04T08:28:14.681Z,2407.50
2023-05-04T08:29:14.668Z,2520.00
2023-05-04T08:30:14.650Z,2576.25
2023-05-04T08:31:14.699Z,2418.75
2023-05-04T08:32:14.648Z,2401.88
2023-05-04T08:33:14.615Z,2356.88
2023-05-04T08:34:14.609Z,2311.88
2023-05-04T08:35:14.611Z,2390.62
2023-05-04T08:36:14.585Z,2469.38
2023-05-04T08:37:14.585Z,2407.50
2023-05-04T08:38:14.595Z,2278.12
2023-05-04T08:39:14.549Z,2385.00
2023-05-04T08:40:14.576Z,2317.50
2023-05-04T08:41:14.541Z,2559.38
2023-05-04T08:42:14.533Z,2761.88
2023-05-04T08:43:14.506Z,2401.88
2023-05-04T08:44:14.498Z,2227.50
2023-05-04T08:45:14.486Z,2345.62
2023-05-04T08:46:14.519Z,2565.00
2023-05-04T08:47:14.498Z,2626.88
2023-05-04T08:48:14.456Z,2643.75
2023-05-04T08:49:14.451Z,2559.38
2023-05-04T08:50:14.443Z,2542.50
2023-05-04T08:51:14.425Z,2790.00
2023-05-04T08:52:14.415Z,2806.88
2023-05-04T08:53:14.427Z,2435.62
2023-05-04T08:54:14.474Z,2390.62
2023-05-04T08:55:14.394Z,2683.12
2023-05-04T08:56:14.369Z,2716.88
2023-05-04T08:57:14.356Z,2632.50
2023-05-04T08:58:14.362Z,2497.50
2023-05-04T08:59:14.350Z,2531.25
2023-05-04T09:00:14.340Z,2497.50
2023-05-04T09:01:14.398Z,2368.12
2023-05-04T09:02:14.321Z,2413.12
2023-05-04T09:03:14.350Z,2362.50
2023-05-04T09:04:14.283Z,2514.38
2023-05-04T09:05:14.288Z,2716.88
2023-05-04T09:06:14.272Z,2778.75
2023-05-04T09:07:14.249Z,2868.75
2023-05-04T09:08:14.239Z,2896.88
2023-05-04T09:09:14.252Z,2851.88
2023-05-04T09:10:14.242Z,2891.25
2023-05-04T09:11:14.221Z,2964.38
2023-05-04T09:12:14.196Z,2936.25
2023-05-04T09:13:14.203Z,2891.25
2023-05-04T09:14:14.195Z,2930.62
2023-05-04T09:15:14.179Z,2688.75
2023-05-04T09:16:14.881Z,2340.00
2023-05-04T09:17:14.185Z,2525.62
2023-05-04T09:18:14.191Z,2857.50
2023-05-04T09:19:14.117Z,2728.12
2023-05-04T09:20:14.125Z,2728.12
2023-05-04T09:21:14.095Z,2694.38
2023-05-04T09:22:14.089Z,2801.25
2023-05-04T09:23:14.090Z,2975.62
2023-05-04T09:24:14.065Z,2964.38
2023-05-04T09:25:14.053Z,2846.25
2023-05-04T09:26:14.103Z,2840.62
2023-05-04T09:27:14.026Z,2908.12
2023-05-04T09:28:14.033Z,2874.38
2023-05-04T09:29:14.179Z,2778.75
2023-05-04T09:30:13.999Z,2885.62
2023-05-04T09:31:14.045Z,2733.75
2023-05-04T09:32:13.973Z,2531.25
2023-05-04T09:33:13.964Z,2598.75
2023-05-04T09:34:13.963Z,2711.25
2023-05-04T09:35:22.028Z,2778.75
2023-05-04T09:36:14.957Z,2728.12
2023-05-04T09:37:13.926Z,2598.75
2023-05-04T09:38:13.905Z,2514.38
2023-05-04T09:39:13.891Z,3031.88
2023-05-04T09:40:13.889Z,3228.75
2023-05-04T09:41:13.889Z,3088.12
2023-05-04T09:42:13.906Z,3206.25
2023-05-04T09:43:13.851Z,3037.50
2023-05-04T09:44:13.842Z,2778.75
2023-05-04T09:45:13.823Z,2874.38
2023-05-04T09:46:13.868Z,2992.50
2023-05-04T09:47:13.823Z,3065.62
2023-05-04T09:48:13.799Z,3003.75
2023-05-04T09:49:13.782Z,3048.75
2023-05-04T09:50:13.774Z,3048.75
2023-05-04T09:51:13.764Z,2660.62
2023-05-04T09:52:13.773Z,2576.25
2023-05-04T09:53:13.750Z,2851.88
2023-05-04T09:54:13.731Z,2908.12
2023-05-04T09:55:13.727Z,2936.25
2023-05-04T09:56:13.708Z,3341.25
2023-05-04T09:57:13.715Z,3285.00
2023-05-04T09:58:13.709Z,3200.62
2023-05-04T09:59:13.695Z,3076.88
2023-05-04T10:00:13.670Z,2913.75
2023-05-04T10:01:13.705Z,2930.62
2023-05-04T10:02:22.671Z,2896.88
2023-05-04T10:03:14.668Z,2863.12
2023-05-04T10:04:13.623Z,2576.25
2023-05-04T10:05:13.658Z,2514.38
2023-05-04T10:06:13.647Z,2503.12
2023-05-04T10:07:13.591Z,2531.25
2023-05-04T10:08:13.584Z,2761.88
2023-05-04T10:09:13.583Z,2801.25
2023-05-04T10:10:13.551Z,2553.75
2023-05-04T10:11:13.551Z,2424.38
2023-05-04T10:12:13.526Z,2570.62
2023-05-04T10:13:13.582Z,2857.50
2023-05-04T10:14:13.545Z,2694.38
2023-05-04T10:15:13.517Z,2857.50
2023-05-04T10:16:13.513Z,3223.12
2023-05-04T10:17:13.905Z,3037.50
2023-05-04T10:18:13.463Z,2655.00
2023-05-04T10:19:13.456Z,2773.12
2023-05-04T10:20:13.450Z,2908.12
2023-05-04T10:21:13.431Z,2784.38
2023-05-04T10:22:13.417Z,2812.50
2023-05-04T10:23:13.433Z,2728.12
2023-05-04T10:24:13.398Z,2626.88
2023-05-04T10:25:13.418Z,2525.62
2023-05-04T10:26:13.397Z,2542.50
2023-05-04T10:27:13.369Z,2677.50
2023-05-04T10:28:13.368Z,3065.62
2023-05-04T10:29:13.359Z,3150.00
2023-05-04T10:30:13.349Z,3251.25
2023-05-04T10:31:13.374Z,3465.00
2023-05-04T10:32:13.307Z,3324.38
2023-05-04T10:33:13.304Z,2773.12
2023-05-04T10:34:13.316Z,2418.75
2023-05-04T10:35:13.309Z,2604.38
2023-05-04T10:36:13.274Z,2863.12
2023-05-04T10:37:13.265Z,2958.75
2023-05-04T10:38:13.243Z,2891.25
2023-05-04T10:39:13.238Z,3093.75
2023-05-04T10:40:13.271Z,2992.50
2023-05-04T10:41:13.219Z,2711.25
2023-05-04T10:42:13.211Z,2835.00
2023-05-04T10:43:13.194Z,3161.25
2023-05-04T10:44:13.178Z,3375.00
2023-05-04T10:45:13.172Z,3026.25
2023-05-04T10:46:13.273Z,3161.25
2023-05-04T10:47:13.156Z,3138.75
2023-05-04T10:48:13.185Z,2953.12
2023-05-04T10:49:13.139Z,2868.75
2023-05-04T10:50:13.116Z,2874.38
2023-05-04T10:51:13.117Z,2705.62
2023-05-04T10:52:13.105Z,2913.75
2023-05-04T10:53:13.105Z,3026.25
2023-05-04T10:54:13.070Z,2992.50
2023-05-04T10:55:13.081Z,2863.12
2023-05-04T10:56:13.054Z,2801.25
2023-05-04T10:57:13.082Z,2930.62
2023-05-04T10:58:13.040Z,2908.12
2023-05-04T10:59:13.034Z,2761.88
2023-05-04T11:00:13.008Z,2778.75
2023-05-04T11:01:13.041Z,2716.88
2023-05-04T11:02:13.012Z,2767.50
2023-05-04T11:03:13.094Z,2818.12
2023-05-04T11:04:12.986Z,2812.50
2023-05-04T11:05:12.977Z,3020.62
2023-05-04T11:06:12.942Z,2857.50
2023-05-04T11:07:12.939Z,2716.88
2023-05-04T11:08:12.951Z,2638.12
2023-05-04T11:09:12.926Z,2581.88
2023-05-04T11:10:12.929Z,2401.88
2023-05-04T11:11:12.951Z,2542.50
2023-05-04T11:12:12.873Z,2593.12
2023-05-04T11:13:12.914Z,2536.88
2023-05-04T11:14:12.855Z,2750.62
2023-05-04T11:15:12.850Z,2880.00
2023-05-04T11:16:12.893Z,2913.75
2023-05-04T11:17:27.402Z,3121.88
2023-05-04T11:18:13.893Z,3161.25
2023-05-04T11:19:12.814Z,2767.50
2023-05-04T11:20:12.801Z,2795.62
2023-05-04T11:21:12.793Z,2818.12
2023-05-04T11:22:12.800Z,2587.50
2023-05-04T11:23:12.794Z,2925.00
2023-05-04T11:24:12.769Z,2941.88
2023-05-04T11:25:12.735Z,2846.25
2023-05-04T11:26:12.733Z,2908.12
2023-05-04T11:27:12.720Z,2970.00
2023-05-04T11:28:14.371Z,2947.50
2023-05-04T11:29:12.708Z,3015.00
2023-05-04T11:30:12.687Z,3015.00
2023-05-04T11:31:12.703Z,3037.50
2023-05-04T11:32:12.676Z,2761.88
2023-05-04T11:33:12.656Z,2396.25
2023-05-04T11:34:12.779Z,2525.62
2023-05-04T11:35:12.636Z,2626.88
2023-05-04T11:36:12.632Z,2030.62
2023-05-04T11:37:12.627Z,2362.50
2023-05-04T11:38:12.591Z,2430.00
2023-05-04T11:39:12.591Z,2593.12
2023-05-04T11:40:12.668Z,2728.12
2023-05-04T11:41:12.579Z,2666.25
2023-05-04T11:42:12.560Z,2604.38
2023-05-04T11:43:12.544Z,2548.12
2023-05-04T11:44:12.530Z,2424.38
2023-05-04T11:45:12.537Z,2244.38
2023-05-04T11:46:12.532Z,2598.75
2023-05-04T11:47:12.498Z,2700.00
2023-05-04T11:48:12.483Z,2514.38
2023-05-04T11:49:12.490Z,2356.88
2023-05-04T11:50:12.614Z,2300.62
2023-05-04T11:51:12.463Z,2351.25
2023-05-04T11:52:12.452Z,2238.75
2023-05-04T11:53:12.453Z,2227.50
2023-05-04T11:54:12.419Z,1957.50
2023-05-04T11:55:12.435Z,1929.38
2023-05-04T11:56:12.401Z,1884.38
2023-05-04T11:57:12.391Z,1878.75
2023-05-04T11:58:12.385Z,1895.62
2023-05-04T11:59:12.378Z,1940.62
2023-05-04T12:00:12.381Z,1912.50
2023-05-04T12:01:12.347Z,1906.88
2023-05-04T12:02:12.352Z,1878.75
2023-05-04T12:03:12.535Z,1951.88
2023-05-04T12:04:12.332Z,1935.00
2023-05-04T12:05:12.323Z,1985.62
2023-05-04T12:06:12.310Z,2075.62
2023-05-04T12:07:12.279Z,2002.50
2023-05-04T12:08:12.351Z,1985.62
2023-05-04T12:09:12.267Z,1940.62
2023-05-04T12:10:12.313Z,2025.00
2023-05-04T12:11:12.238Z,2092.50
2023-05-04T12:12:12.224Z,2126.25
2023-05-04T12:13:12.232Z,2160.00
2023-05-04T12:14:12.196Z,2176.88
2023-05-04T12:15:12.190Z,2171.25
2023-05-04T12:16:12.230Z,2137.50
2023-05-04T12:17:12.166Z,1923.75
2023-05-04T12:18:12.167Z,2086.88
2023-05-04T12:19:12.147Z,2041.88
2023-05-04T12:20:12.148Z,2047.50
2023-05-04T12:21:12.139Z,2148.75
2023-05-04T12:22:12.280Z,2176.88
2023-05-04T12:23:12.104Z,2182.50
2023-05-04T12:24:12.090Z,2205.00
2023-05-04T12:25:12.088Z,2272.50
2023-05-04T12:26:12.066Z,2244.38
2023-05-04T12:27:12.069Z,2109.38
2023-05-04T12:28:12.078Z,2148.75
2023-05-04T12:29:12.045Z,2154.38
2023-05-04T12:30:12.021Z,2013.75
2023-05-04T12:31:12.067Z,1951.88
2023-05-04T12:32:12.073Z,2053.12
2023-05-04T12:33:11.994Z,2227.50